Time;durP1;ratioP1;P1;durP2;ratioP2;P2;SDS_P1;SDS_P2;PMS_P1;PMS_P2;Temp;Humidity;BMP_temperature;BMP_pressure;BME280_temperature;BME280_humidity;BME280_pressure;Samples;Min_cycle;Max_cycle;Signal;HPM_P1;HPM_P2
2024/01/12 00:01:15;;;;;;;2.08;1.98;;;;;;;0.60;100.00;98050.88;5093572;28;20250;-57
2024/01/12 00:03:40;;;;;;;2.30;2.20;;;;;;;0.38;100.00;97988.06;5093560;28;20180;-57
2024/01/12 00:06:06;;;;;;;2.30;2.10;;;;;;;0.79;100.00;98053.63;5093520;28;20178;-57
2024/01/12 00:08:32;;;;;;;2.78;2.55;;;;;;;0.31;100.00;97961.19;5093346;28;20172;-57
2024/01/12 00:10:58;;;;;;;3.28;2.60;;;;;;;0.90;100.00;98059.16;5093304;28;20559;-57
2024/01/12 00:13:24;;;;;;;2.75;2.55;;;;;;;0.46;100.00;97958.09;5093295;28;20196;-57
2024/01/12 00:15:49;;;;;;;2.35;2.25;;;;;;;0.68;100.00;97992.06;5093243;28;20241;-57
2024/01/12 00:18:35;;;;;;;2.60;2.40;;;;;;;1.08;100.00;98051.69;5050533;28;20204;-57
2024/01/12 00:21:00;;;;;;;2.95;2.60;;;;;;;0.53;100.00;97955.28;5050584;28;20277;-57
2024/01/12 00:23:27;;;;;;;2.95;2.55;;;;;;;0.54;100.00;97967.09;5050476;28;20205;-57
2024/01/12 00:25:58;;;;;;;3.22;2.60;;;;;;;0.93;100.00;98042.06;5050554;28;20572;-57
2024/01/12 00:28:26;;;;;;;2.65;2.45;;;;;;;0.80;100.00;98023.03;5050623;28;20670;-57
2024/01/12 00:30:52;;;;;;;3.08;2.78;;;;;;;0.66;100.00;98011.66;5050225;28;20573;-57
2024/01/12 00:33:17;;;;;;;3.75;2.67;;;;;;;1.00;100.00;98068.13;5050210;28;20229;-57
2024/01/12 00:35:43;;;;;;;3.20;2.97;;;;;;;0.48;100.00;97981.78;5050359;28;20170;-57
2024/01/12 00:38:08;;;;;;;3.22;2.78;;;;;;;0.54;100.00;97989.19;5050333;28;20200;-57
2024/01/12 00:40:34;;;;;;;2.70;2.50;;;;;;;0.94;100.00;98064.09;5050223;28;20273;-57
2024/01/12 00:42:59;;;;;;;2.92;2.72;;;;;;;0.54;100.00;97992.56;5050158;28;20324;-57
2024/01/12 00:45:25;;;;;;;2.58;2.40;;;;;;;1.05;100.00;98071.34;5050170;28;20185;-57
2024/01/12 00:47:50;;;;;;;2.85;2.50;;;;;;;0.54;100.00;97977.28;4990771;28;20195;-57
2024/01/12 00:50:15;;;;;;;2.83;2.63;;;;;;;0.63;100.00;97994.78;4990744;28;20247;-57
2024/01/12 00:52:41;;;;;;;2.65;2.45;;;;;;;0.62;100.00;97990.59;4990773;28;20196;-57
2024/01/12 00:55:06;;;;;;;3.20;2.88;;;;;;;1.13;100.00;98075.28;4971085;28;20746;-57
2024/01/12 00:57:32;;;;;;;2.80;2.60;;;;;;;0.51;100.00;97982.50;4951755;29;20309;-57
2024/01/12 00:59:57;;;;;;;2.88;2.65;;;;;;;0.69;100.00;98032.75;4980395;28;20225;-57
2024/01/12 01:02:23;;;;;;;3.10;2.80;;;;;;;0.59;100.00;98031.41;4990587;28;20216;-57
2024/01/12 01:04:48;;;;;;;2.97;2.67;;;;;;;0.94;100.00;98076.81;4990578;28;20200;-57
2024/01/12 01:07:14;;;;;;;2.85;2.63;;;;;;;0.84;100.00;98074.66;4990444;28;20188;-57
2024/01/12 01:09:39;;;;;;;3.20;3.00;;;;;;;0.48;100.00;98008.03;4990533;28;20179;-57
2024/01/12 01:12:05;;;;;;;3.03;2.80;;;;;;;0.77;100.00;98046.03;4990402;28;20191;-57
2024/01/12 01:14:31;;;;;;;3.05;2.75;;;;;;;0.28;100.00;97964.69;4990356;28;20223;-57
2024/01/12 01:16:56;;;;;;;3.20;2.97;;;;;;;0.45;100.00;97987.81;4990472;28;20196;-57
2024/01/12 01:19:22;;;;;;;3.47;3.22;;;;;;;0.68;100.00;97994.63;5018493;28;20273;-57
2024/01/12 01:21:48;;;;;;;4.30;3.90;;;;;;;0.84;100.00;98042.41;5029541;28;20205;-57
2024/01/12 01:24:13;;;;;;;3.50;3.20;;;;;;;0.90;100.00;98041.34;5029591;28;20198;-57
2024/01/12 01:26:39;;;;;;;3.08;2.78;;;;;;;0.32;100.00;97962.84;5058759;28;20599;-57
2024/01/12 01:29:04;;;;;;;3.15;2.80;;;;;;;0.83;100.00;98034.81;5085841;28;20624;-57
2024/01/12 01:31:30;;;;;;;3.45;3.15;;;;;;;0.49;100.00;97986.84;5091934;28;20216;-57
2024/01/12 01:33:56;;;;;;;4.00;3.08;;;;;;;0.43;100.00;97991.28;5091940;28;20196;-57
2024/01/12 01:36:22;;;;;;;3.30;2.95;;;;;;;0.69;100.00;98027.66;5092017;28;20204;-57
2024/01/12 01:38:47;;;;;;;7.85;6.43;;;;;;;0.21;100.00;97953.06;5091994;28;20595;-57
2024/01/12 01:41:13;;;;;;;6.60;5.05;;;;;;;0.73;100.00;98039.41;5091976;28;20700;-57
2024/01/12 01:43:38;;;;;;;5.10;3.60;;;;;;;0.75;100.00;98052.91;5091928;28;20249;-57
2024/01/12 01:46:03;;;;;;;5.47;3.97;;;;;;;0.06;100.00;97942.59;5091879;28;20247;-57
2024/01/12 01:48:30;;;;;;;3.75;3.45;;;;;;;0.62;100.00;98031.31;5091436;28;20176;-57
2024/01/12 01:50:56;;;;;;;4.78;4.35;;;;;;;0.10;100.00;97923.78;5091706;28;20172;-57
2024/01/12 01:53:22;;;;;;;4.97;3.67;;;;;;;0.20;100.00;97955.66;5091735;28;20218;-57
2024/01/12 01:55:48;;;;;;;4.25;3.58;;;;;;;0.03;100.00;97917.25;5091854;28;20172;-57
2024/01/12 01:58:14;;;;;;;3.60;3.30;;;;;;;0.55;100.00;98014.59;5091649;28;20174;-57
2024/01/12 02:00:39;;;;;;;2.80;2.60;;;;;;;0.40;100.00;97999.03;5029041;28;20668;-57
2024/01/12 02:03:06;;;;;;;3.70;3.40;;;;;;;0.34;100.00;97974.63;5029231;28;20648;-57
2024/01/12 02:05:35;;;;;;;9.77;6.63;;;;;;;0.53;100.00;97990.91;5029131;28;20197;-57
2024/01/12 02:08:01;;;;;;;4.45;3.63;;;;;;;0.64;100.00;98004.09;5029201;28;20217;-57
2024/01/12 02:10:27;;;;;;;6.30;3.80;;;;;;;0.56;100.00;98011.16;5029121;28;20241;-57
2024/01/12 02:12:53;;;;;;;3.47;3.20;;;;;;;0.45;100.00;97981.88;5029091;28;20628;-57
2024/01/12 02:15:18;;;;;;;4.03;3.65;;;;;;;-0.03;100.00;97897.97;5028947;28;20217;-57
2024/01/12 02:17:44;;;;;;;4.57;3.13;;;;;;;-0.08;100.00;97898.19;5028963;28;20202;-57
2024/01/12 02:20:10;;;;;;;3.58;3.28;;;;;;;-0.01;100.00;97893.66;4970274;28;20185;-57
2024/01/12 02:22:36;;;;;;;4.07;2.90;;;;;;;0.53;100.00;98005.38;4970357;28;20223;-57
2024/01/12 02:25:01;;;;;;;3.42;3.13;;;;;;;0.62;100.00;98000.78;4970370;28;20189;-57
2024/01/12 02:27:28;;;;;;;3.83;3.00;;;;;;;-0.01;100.00;97906.38;4970243;28;20189;-57
2024/01/12 02:29:54;;;;;;;2.38;2.22;;;;;;;0.03;100.00;97889.28;4964508;28;20777;-57
2024/01/12 02:32:20;;;;;;;2.25;2.10;;;;;;;0.37;100.00;97949.06;5016663;28;20676;-57
2024/01/12 02:34:46;;;;;;;2.45;2.25;;;;;;;0.68;99.62;97995.47;5028826;28;20241;-57
2024/01/12 02:37:11;;;;;;;3.33;2.30;;;;;;;0.43;97.24;97943.75;5009073;28;20187;-57
2024/01/12 02:39:37;;;;;;;2.80;2.55;;;;;;;0.54;97.67;97964.56;5009197;28;20336;-57
2024/01/12 02:42:02;;;;;;;2.30;2.20;;;;;;;0.72;97.99;97986.81;5009131;28;20215;-57
2024/01/12 02:44:28;;;;;;;2.92;2.72;;;;;;;0.64;96.91;97988.00;5009388;28;20178;-57
2024/01/12 02:46:53;;;;;;;4.38;2.90;;;;;;;0.03;97.69;97872.34;5009068;28;20191;-57
2024/01/12 02:49:19;;;;;;;2.95;2.53;;;;;;;0.65;96.67;97965.00;5009026;28;20606;-57
2024/01/12 02:51:46;;;;;;;3.67;3.38;;;;;;;0.33;96.18;97928.88;5038688;28;20768;-57
2024/01/12 02:54:11;;;;;;;3.35;2.75;;;;;;;0.09;95.96;97871.28;5048512;28;20205;-57
2024/01/12 02:56:37;;;;;;;2.63;2.40;;;;;;;0.43;95.71;97923.41;5048644;28;20174;-57
2024/01/12 02:59:02;;;;;;;2.65;2.50;;;;;;;0.64;91.24;97950.63;5040410;28;20224;-57
2024/01/12 03:01:27;;;;;;;2.92;2.72;;;;;;;0.54;91.20;97951.03;5049755;28;20196;-57
2024/01/12 03:03:54;;;;;;;3.35;3.05;;;;;;;0.59;90.25;97944.06;5052089;28;20273;-57
2024/01/12 03:06:20;;;;;;;2.20;2.10;;;;;;;0.17;89.14;97857.41;5052025;28;20676;-57
2024/01/12 03:08:45;;;;;;;2.25;2.05;;;;;;;0.74;87.82;97964.69;5051662;28;20190;-57
2024/01/12 03:11:11;;;;;;;2.00;1.85;;;;;;;0.80;87.55;97959.38;5052172;28;20239;-57
2024/01/12 03:13:36;;;;;;;1.90;1.80;;;;;;;-0.04;88.67;97824.28;5035161;28;20213;-57
2024/01/12 03:16:03;;;;;;;2.00;1.90;;;;;;;0.51;88.80;97926.53;5063802;28;20276;-57
2024/01/12 03:18:30;;;;;;;11.07;5.18;;;;;;;0.71;88.32;97954.59;5071522;28;20654;-57
2024/01/12 03:20:57;;;;;;;4.15;2.90;;;;;;;0.54;87.23;97923.84;5071771;28;20632;-57
2024/01/12 03:23:23;;;;;;;2.85;2.65;;;;;;;0.77;87.19;97964.56;5071729;28;20276;-57
2024/01/12 03:25:49;;;;;;;3.53;2.30;;;;;;;0.49;87.54;97918.13;5071629;28;20734;-57
2024/01/12 03:28:15;;;;;;;2.80;2.60;;;;;;;0.77;88.01;97964.56;5071542;28;20718;-57
2024/01/12 03:30:40;;;;;;;2.50;2.30;;;;;;;0.90;83.34;97993.81;5071491;28;20663;-57
2024/01/12 03:33:08;;;;;;;5.18;4.13;;;;;;;0.83;82.92;97969.44;5071411;28;20189;-57
2024/01/12 03:35:35;;;;;;;4.57;3.50;;;;;;;1.18;81.50;98013.97;5071559;28;20189;-57
2024/01/12 03:38:00;;;;;;;3.85;3.20;;;;;;;1.04;81.78;97989.00;5071364;28;20569;-57
2024/01/12 03:40:26;;;;;;;3.40;2.95;;;;;;;0.49;79.95;97897.78;5071446;28;20311;-57
2024/01/12 03:42:51;;;;;;;4.55;3.58;;;;;;;1.19;77.54;98010.53;5071368;28;20761;-57
2024/01/12 03:45:17;;;;;;;3.90;3.38;;;;;;;0.82;79.28;97942.31;5051194;28;20193;-57
2024/01/12 03:47:42;;;;;;;3.50;3.20;;;;;;;0.61;81.15;97899.84;5051279;28;20231;-57
2024/01/12 03:50:09;;;;;;;7.03;4.20;;;;;;;0.90;82.62;97947.97;5051300;28;20194;-57
2024/01/12 03:52:35;;;;;;;4.93;3.83;;;;;;;0.85;83.66;97921.00;5051249;28;20173;-57
2024/01/12 03:55:00;;;;;;;3.35;2.75;;;;;;;0.60;83.18;97888.00;5051044;28;20713;-57
2024/01/12 03:57:26;;;;;;;4.50;4.00;;;;;;;1.25;83.87;97998.41;5051109;28;20181;-57
2024/01/12 03:59:51;;;;;;;3.85;3.50;;;;;;;0.68;84.80;97924.19;5050215;28;20197;-57
2024/01/12 04:02:18;;;;;;;6.85;5.80;;;;;;;1.11;85.29;97999.81;5051021;28;20212;-57
2024/01/12 04:04:43;;;;;;;6.45;3.17;;;;;;;0.58;85.36;97902.50;5050986;28;20251;-57
2024/01/12 04:07:09;;;;;;;3.30;2.97;;;;;;;0.86;83.40;97963.38;5050926;28;20181;-57
2024/01/12 04:09:34;;;;;;;2.90;2.65;;;;;;;0.76;83.10;97926.44;5051201;28;20185;-57
2024/01/12 04:12:00;;;;;;;3.30;3.00;;;;;;;1.07;83.73;97981.25;5050310;28;20668;-57
2024/01/12 04:14:25;;;;;;;3.60;2.80;;;;;;;0.84;83.95;97939.72;5050763;28;20205;-57
2024/01/12 04:16:51;;;;;;;3.38;3.08;;;;;;;0.82;84.07;97938.94;5082502;28;20550;-57
2024/01/12 04:19:16;;;;;;;3.05;2.60;;;;;;;0.83;84.44;97963.53;5093107;28;20606;-58
2024/01/12 04:21:41;;;;;;;2.85;2.47;;;;;;;0.92;85.04;97979.28;5093297;28;20280;-58
2024/01/12 04:24:07;;;;;;;2.85;2.65;;;;;;;0.96;85.76;97985.94;5093303;28;20176;-57
2024/01/12 04:26:32;;;;;;;3.15;2.83;;;;;;;0.92;86.05;97981.00;5093218;28;20165;-57
2024/01/12 04:28:58;;;;;;;5.13;3.10;;;;;;;0.57;86.18;97912.72;5093172;28;20187;-58
2024/01/12 04:31:23;;;;;;;3.70;3.30;;;;;;;0.69;85.56;97941.13;5093142;28;20180;-58
2024/01/12 04:33:49;;;;;;;4.32;3.33;;;;;;;0.78;85.34;97970.50;5093019;28;20252;-58
2024/01/12 04:36:14;;;;;;;5.40;3.75;;;;;;;0.57;85.88;97940.72;5092999;28;20556;-58
2024/01/12 04:38:39;;;;;;;3.38;3.08;;;;;;;0.78;86.90;97973.84;5093039;28;20557;-57
2024/01/12 04:41:05;;;;;;;5.00;3.20;;;;;;;0.67;86.72;97942.91;5093275;28;20342;-58
2024/01/12 04:43:30;;;;;;;3.70;3.40;;;;;;;1.06;86.34;97999.16;5092943;28;20611;-57
2024/01/12 04:45:56;;;;;;;4.13;3.53;;;;;;;1.04;86.47;98016.19;5092593;28;20688;-58
2024/01/12 04:48:21;;;;;;;11.40;7.00;;;;;;;1.09;85.26;98027.88;5092864;28;20177;-58
2024/01/12 04:50:47;;;;;;;8.27;6.30;;;;;;;1.06;85.10;98033.06;5049986;28;20268;-57
2024/01/12 04:53:12;;;;;;;9.73;6.72;;;;;;;1.02;84.91;98033.25;5049916;28;20276;-57
2024/01/12 04:55:37;;;;;;;5.18;4.68;;;;;;;0.74;85.38;97999.50;5050281;28;20190;-57
2024/01/12 04:58:03;;;;;;;7.57;5.07;;;;;;;0.32;85.64;97929.78;5049917;28;20193;-58
2024/01/12 05:00:30;;;;;;;3.90;3.50;;;;;;;0.40;85.10;97943.88;5050134;28;20190;-57
2024/01/12 05:02:55;;;;;;;3.25;3.00;;;;;;;0.77;85.20;97995.09;5050224;28;20183;-57
2024/01/12 05:05:20;;;;;;;4.07;3.33;;;;;;;0.45;85.11;97934.38;5050018;28;20209;-57
2024/01/12 05:07:46;;;;;;;3.15;2.88;;;;;;;0.13;84.95;97886.34;5049811;28;20177;-57
2024/01/12 05:10:12;;;;;;;4.13;3.53;;;;;;;0.68;83.94;97977.63;5049746;28;20272;-57
2024/01/12 05:12:37;;;;;;;5.10;3.50;;;;;;;0.85;84.33;98005.88;5049722;28;20268;-57
2024/01/12 05:15:03;;;;;;;4.93;3.95;;;;;;;1.17;83.91;98056.44;5049536;28;20210;-57
2024/01/12 05:17:28;;;;;;;21.58;12.10;;;;;;;0.51;81.64;97938.41;5049504;28;20233;-57
2024/01/12 05:19:54;;;;;;;11.98;5.47;;;;;;;0.65;82.53;97979.47;5049719;28;20227;-57
2024/01/12 05:22:20;;;;;;;12.02;7.90;;;;;;;0.93;82.97;98056.50;5080638;28;20184;-58
2024/01/12 05:24:45;;;;;;;15.73;9.50;;;;;;;0.96;83.89;98059.78;5091405;28;20185;-57
2024/01/12 05:27:10;;;;;;;9.30;5.60;;;;;;;0.68;84.15;97995.47;5092149;28;20176;-58
2024/01/12 05:29:36;;;;;;;5.47;4.05;;;;;;;0.91;83.58;98031.09;5092116;28;20251;-57
2024/01/12 05:32:02;;;;;;;5.35;4.00;;;;;;;0.43;83.78;97953.94;5049553;28;20217;-57
2024/01/12 05:34:27;;;;;;;5.40;3.30;;;;;;;1.10;84.14;98046.53;5049262;28;20358;-58
2024/01/12 05:36:53;;;;;;;8.43;3.72;;;;;;;1.08;84.10;98035.56;5049628;28;20194;-58
2024/01/12 05:39:18;;;;;;;3.72;3.42;;;;;;;0.94;83.54;98007.25;5049421;28;20177;-57
2024/01/12 05:41:43;;;;;;;14.32;7.03;;;;;;;1.22;83.29;98036.72;5049334;28;20679;-57
2024/01/12 05:44:09;;;;;;;11.25;6.18;;;;;;;1.21;83.11;98031.66;5049252;28;20656;-57
2024/01/12 05:46:34;;;;;;;11.38;7.05;;;;;;;0.59;82.07;97932.16;5049282;28;20216;-57
2024/01/12 05:49:03;;;;;;;26.00;11.85;;;;;;;0.91;81.62;97982.72;5049306;28;20224;-57
2024/01/12 05:51:29;;;;;;;17.67;9.73;;;;;;;0.88;81.14;97972.63;5049223;28;20185;-57
2024/01/12 05:53:55;;;;;;;16.50;7.88;;;;;;;1.25;81.38;98044.25;5049112;28;20582;-58
2024/01/12 05:56:20;;;;;;;36.53;14.93;;;;;;;0.79;81.72;97978.09;5049204;28;20197;-57
2024/01/12 05:58:46;;;;;;;24.85;8.38;;;;;;;1.04;77.55;98004.28;5049058;28;20197;-57
2024/01/12 06:01:11;;;;;;;23.00;12.27;;;;;;;0.86;77.72;97994.78;5049133;28;20178;-58
2024/01/12 06:03:36;;;;;;;44.85;19.00;;;;;;;0.71;79.28;98012.34;5080852;28;20241;-57
2024/01/12 06:06:03;;;;;;;32.53;13.55;;;;;;;0.97;80.67;98063.13;5091647;28;20183;-57
2024/01/12 06:08:29;;;;;;;31.90;13.82;;;;;;;0.54;82.66;98020.56;5091707;28;20182;-57
2024/01/12 06:10:54;;;;;;;13.93;6.85;;;;;;;0.67;82.44;98031.16;5091653;28;20562;-58
2024/01/12 06:13:20;;;;;;;8.57;5.72;;;;;;;0.58;81.58;98019.56;5091565;28;20176;-58
2024/01/12 06:15:45;;;;;;;9.45;6.05;;;;;;;0.75;81.69;98063.09;5091624;28;20169;-57
2024/01/12 06:18:10;;;;;;;6.75;4.80;;;;;;;0.58;82.18;98045.03;5091597;28;20671;-58
2024/01/12 06:20:36;;;;;;;5.82;4.65;;;;;;;1.00;79.22;98091.06;5091576;28;20178;-58
2024/01/12 06:23:01;;;;;;;7.05;4.13;;;;;;;0.39;80.28;98008.38;5091270;28;20182;-57
2024/01/12 06:25:29;;;;;;;7.65;4.72;;;;;;;1.00;80.16;98102.06;5091456;28;20177;-57
2024/01/12 06:27:54;;;;;;;9.48;5.45;;;;;;;1.00;80.50;98122.44;5091387;28;20673;-58
2024/01/12 06:30:20;;;;;;;4.93;4.13;;;;;;;0.41;81.19;98016.78;5091759;28;20255;-57
2024/01/12 06:32:45;;;;;;;13.82;5.63;;;;;;;0.59;81.72;98046.69;5091491;28;20588;-57
2024/01/12 06:35:12;;;;;;;12.23;5.47;;;;;;;0.56;82.29;98067.16;5092339;28;20204;-58
2024/01/12 06:37:38;;;;;;;7.80;4.35;;;;;;;0.89;82.56;98110.97;5093002;28;20314;-57
2024/01/12 06:40:04;;;;;;;27.02;9.63;;;;;;;0.66;82.42;98080.41;5086030;28;20196;-58
2024/01/12 06:42:31;;;;;;;27.75;9.70;;;;;;;0.55;82.71;98065.50;5094894;28;20188;-57
2024/01/12 06:44:56;;;;;;;86.53;24.63;;;;;;;0.75;83.11;98090.25;5094701;28;20252;-57
2024/01/12 06:47:22;;;;;;;47.38;17.88;;;;;;;0.71;82.32;98091.25;5094451;28;20516;-57
2024/01/12 06:49:47;;;;;;;45.90;18.33;;;;;;;1.02;83.32;98151.25;5094593;28;20196;-58
2024/01/12 06:52:13;;;;;;;26.73;12.32;;;;;;;0.52;82.19;98052.88;5094272;28;20178;-57
2024/01/12 06:54:43;;;;;;;20.83;9.52;;;;;;;1.10;80.21;98144.16;5094723;28;20628;-57
2024/01/12 06:57:08;;;;;;;19.73;9.57;;;;;;;0.64;80.07;98065.16;5094463;28;20646;-58
2024/01/12 06:59:33;;;;;;;15.35;9.55;;;;;;;0.78;80.13;98078.22;5094939;28;20180;-58
2024/01/12 07:01:59;;;;;;;19.83;8.57;;;;;;;0.97;79.87;98093.69;5094650;28;20279;-58
2024/01/12 07:04:25;;;;;;;13.90;7.40;;;;;;;1.24;80.16;98128.38;5094881;28;20180;-58
2024/01/12 07:06:51;;;;;;;14.23;8.10;;;;;;;1.51;80.74;98169.00;5094432;28;20172;-57
2024/01/12 07:09:17;;;;;;;127.95;28.00;;;;;;;1.07;81.17;98085.66;5094487;28;20181;-57
2024/01/12 07:11:43;;;;;;;68.68;22.02;;;;;;;1.55;81.46;98155.25;5094436;28;20179;-57
2024/01/12 07:14:09;;;;;;;98.40;27.40;;;;;;;1.82;80.86;98189.91;5094332;28;20204;-58
2024/01/12 07:16:35;;;;;;;105.22;29.67;;;;;;;1.50;80.52;98126.56;5094353;28;20634;-59
2024/01/12 07:19:01;;;;;;;61.00;21.25;;;;;;;1.88;80.40;98182.03;5094479;28;20220;-57
2024/01/12 07:21:26;;;;;;;51.28;17.38;;;;;;;1.43;79.70;98094.53;5094458;28;20261;-57
2024/01/12 07:23:51;;;;;;;29.83;12.00;;;;;;;2.08;79.39;98189.78;5094278;28;20184;-57
2024/01/12 07:26:17;;;;;;;23.08;10.35;;;;;;;1.94;79.07;98163.13;5094185;28;20165;-57
2024/01/12 07:28:42;;;;;;;21.23;10.02;;;;;;;1.89;78.91;98155.66;5094142;28;20259;-57
2024/01/12 07:31:08;;;;;;;28.08;12.13;;;;;;;2.00;78.79;98163.69;5094127;28;20177;-57
2024/01/12 07:33:33;;;;;;;46.83;17.55;;;;;;;1.96;78.47;98141.78;5093663;28;20200;-57
2024/01/12 07:35:59;;;;;;;61.38;18.08;;;;;;;1.68;77.70;98090.16;5093983;28;20176;-58
2024/01/12 07:38:25;;;;;;;91.38;27.55;;;;;;;2.01;77.05;98137.31;5093952;28;20198;-58
2024/01/12 07:40:50;;;;;;;66.95;20.85;;;;;;;1.73;76.33;98072.97;5093802;28;20176;-58
2024/01/12 07:43:15;;;;;;;49.13;19.33;;;;;;;2.56;76.25;98210.81;5093792;28;20172;-58
2024/01/12 07:45:41;;;;;;;32.83;14.93;;;;;;;2.28;76.28;98138.75;5093888;28;20217;-58
2024/01/12 07:48:07;;;;;;;29.20;14.63;;;;;;;2.72;76.76;98203.34;5092970;28;20168;-58
2024/01/12 07:50:33;;;;;;;17.10;11.07;;;;;;;2.60;76.88;98161.28;5093755;28;20547;-58
2024/01/12 07:52:59;;;;;;;18.42;10.68;;;;;;;2.56;75.65;98148.72;5093623;28;20180;-58
2024/01/12 07:55:25;;;;;;;19.33;10.85;;;;;;;3.02;75.09;98202.94;5093530;28;20197;-58
2024/01/12 07:57:50;;;;;;;30.92;12.32;;;;;;;3.10;74.23;98213.66;5093447;28;20676;-58
2024/01/12 08:00:16;;;;;;;19.45;11.40;;;;;;;2.69;72.85;98122.59;5093535;28;20172;-58
2024/01/12 08:02:42;;;;;;;24.10;11.73;;;;;;;2.72;70.00;98109.69;5093498;28;20255;-58
2024/01/12 08:05:08;;;;;;;18.75;9.63;;;;;;;3.44;68.86;98213.88;5093100;28;20196;-58
2024/01/12 08:07:33;;;;;;;9.23;6.10;;;;;;;2.95;62.50;98112.09;5093359;28;20176;-58
2024/01/12 08:09:58;;;;;;;11.20;7.38;;;;;;;3.64;60.71;98210.47;5093287;28;20177;-58
2024/01/12 08:12:24;;;;;;;6.95;5.05;;;;;;;3.48;57.71;98168.53;5093313;28;20172;-58
2024/01/12 08:14:49;;;;;;;6.97;4.53;;;;;;;3.38;57.70;98173.22;5093161;28;20804;-58
2024/01/12 08:17:15;;;;;;;5.97;4.55;;;;;;;3.51;57.92;98202.47;5092765;28;20264;-58
2024/01/12 08:19:40;;;;;;;6.53;4.45;;;;;;;3.70;56.11;98221.25;5093229;28;20562;-58
2024/01/12 08:22:07;;;;;;;4.93;4.45;;;;;;;3.02;57.25;98133.94;5093077;28;20658;-58
2024/01/12 08:24:32;;;;;;;7.28;4.15;;;;;;;3.22;58.91;98171.41;5092961;28;20180;-58
2024/01/12 08:26:57;;;;;;;5.25;4.18;;;;;;;3.42;55.42;98192.66;5091902;28;20631;-58
2024/01/12 08:29:23;;;;;;;4.93;3.75;;;;;;;3.44;55.50;98200.28;5093167;28;20187;-58
2024/01/12 08:31:51;;;;;;;7.25;4.68;;;;;;;3.39;56.14;98169.78;5093208;28;20172;-58
2024/01/12 08:34:17;;;;;;;15.02;9.13;;;;;;;3.74;56.70;98222.75;5092929;28;20290;-58
2024/01/12 08:36:42;;;;;;;10.77;7.07;;;;;;;4.02;56.58;98248.78;5092384;28;20200;-58
2024/01/12 08:39:07;;;;;;;17.23;8.10;;;;;;;4.15;56.28;98247.31;5092763;28;20219;-58
2024/01/12 08:41:33;;;;;;;13.50;8.15;;;;;;;3.96;56.58;98208.13;5092769;28;20200;-58
2024/01/12 08:43:58;;;;;;;19.88;10.52;;;;;;;4.21;57.00;98234.25;5092904;28;20181;-58
2024/01/12 08:46:24;;;;;;;18.63;9.77;;;;;;;3.58;56.42;98129.72;5092833;28;20193;-58
2024/01/12 08:48:49;;;;;;;10.73;7.03;;;;;;;4.44;55.23;98243.44;5092788;28;20172;-58
2024/01/12 08:51:15;;;;;;;12.63;7.55;;;;;;;4.28;55.80;98214.31;5092767;28;20225;-58
2024/01/12 08:53:41;;;;;;;9.07;6.60;;;;;;;4.39;55.54;98223.16;5092425;28;20553;-58
2024/01/12 08:56:07;;;;;;;14.52;7.78;;;;;;;4.05;55.35;98169.31;5092716;28;20180;-58
2024/01/12 08:58:33;;;;;;;9.20;6.32;;;;;;;4.63;55.63;98254.47;5092344;28;20183;-58
2024/01/12 09:00:59;;;;;;;10.43;6.20;;;;;;;4.79;54.15;98268.22;5092544;28;20181;-58
2024/01/12 09:03:25;;;;;;;9.43;6.78;;;;;;;4.79;54.94;98263.91;5092592;28;20264;-58
2024/01/12 09:05:51;;;;;;;11.10;6.57;;;;;;;4.71;54.31;98258.34;5092459;28;20238;-57
2024/01/12 09:08:16;;;;;;;7.32;6.13;;;;;;;4.63;54.44;98257.88;5092436;28;20180;-57
2024/01/12 09:10:42;;;;;;;9.30;6.72;;;;;;;4.46;54.99;98219.41;5092385;28;20184;-57
2024/01/12 09:13:07;;;;;;;10.98;8.00;;;;;;;4.82;55.06;98268.91;5092373;28;20246;-57
2024/01/12 09:15:33;;;;;;;12.50;5.93;;;;;;;4.60;53.32;98237.50;5092237;28;20201;-57
2024/01/12 09:17:59;;;;;;;11.35;6.07;;;;;;;4.37;52.81;98183.16;5092263;28;20224;-57
2024/01/12 09:20:25;;;;;;;8.48;6.22;;;;;;;4.70;52.57;98237.91;5092054;28;20177;-57
2024/01/12 09:22:50;;;;;;;6.10;4.57;;;;;;;4.79;51.13;98266.47;5092000;28;20184;-57
2024/01/12 09:25:16;;;;;;;7.50;4.28;;;;;;;4.52;51.84;98229.38;5092166;28;20188;-57
2024/01/12 09:27:41;;;;;;;14.23;5.13;;;;;;;4.82;52.62;98279.16;5069393;28;20687;-57
2024/01/12 09:30:07;;;;;;;5.53;5.03;;;;;;;4.88;52.08;98284.00;5069543;28;20195;-57
2024/01/12 09:32:32;;;;;;;6.50;4.93;;;;;;;4.48;52.22;98206.53;5069385;28;20259;-57
2024/01/12 09:34:58;;;;;;;6.75;5.15;;;;;;;4.62;51.74;98235.69;5029388;28;20660;-57
2024/01/12 09:37:23;;;;;;;7.05;5.68;;;;;;;4.79;52.01;98245.16;5029508;28;20179;-58
2024/01/12 09:39:49;;;;;;;4.50;4.07;;;;;;;4.67;51.01;98227.81;5029446;28;20652;-57
2024/01/12 09:42:17;;;;;;;7.00;4.57;;;;;;;5.05;50.00;98283.16;5029382;28;20197;-58
2024/01/12 09:44:47;;;;;;;8.13;4.25;;;;;;;4.52;49.49;98202.91;5029411;28;20186;-58
2024/01/12 09:47:12;;;;;;;12.73;7.85;;;;;;;4.94;49.22;98270.88;5029346;28;20190;-58
2024/01/12 09:49:39;;;;;;;7.70;5.90;;;;;;;4.93;48.27;98265.81;4989993;28;20250;-58
2024/01/12 09:52:07;;;;;;;9.27;5.85;;;;;;;5.16;49.08;98286.88;4990143;28;20188;-58
2024/01/12 09:54:36;;;;;;;10.05;6.45;;;;;;;5.16;48.62;98283.47;4989738;28;20657;-59
2024/01/12 09:57:09;;;;;;;9.73;6.25;;;;;;;4.61;49.47;98190.47;4989928;28;20196;-58
2024/01/12 09:59:37;;;;;;;7.70;5.20;;;;;;;5.09;48.89;98257.31;5007057;28;20195;-58
2024/01/12 10:02:08;;;;;;;8.52;5.95;;;;;;;4.77;49.68;98208.50;5009468;28;20309;-58
2024/01/12 10:04:33;;;;;;;6.80;4.75;;;;;;;5.28;48.80;98288.84;5009583;28;20253;-58
2024/01/12 10:06:59;;;;;;;7.32;4.85;;;;;;;5.03;49.55;98243.97;5009780;28;20203;-58
2024/01/12 10:09:26;;;;;;;6.93;4.60;;;;;;;4.82;50.24;98201.44;5009527;28;20249;-58
2024/01/12 10:11:54;;;;;;;6.47;5.05;;;;;;;5.37;48.96;98283.25;5024180;28;20219;-58
2024/01/12 10:14:21;;;;;;;6.90;4.72;;;;;;;5.01;48.69;98220.97;5013193;28;20305;-58
2024/01/12 10:16:57;;;;;;;6.85;4.72;;;;;;;4.93;47.91;98201.72;5013332;28;20187;-58
2024/01/12 10:19:23;;;;;;;5.75;5.05;;;;;;;4.89;47.73;98197.69;4973975;28;20350;-58
2024/01/12 10:21:49;;;;;;;9.73;4.70;;;;;;;4.94;48.54;98203.38;4993522;28;20192;-58
2024/01/12 10:24:24;;;;;;;6.05;4.28;;;;;;;5.12;48.55;98231.53;4993563;28;20187;-58
2024/01/12 10:26:51;;;;;;;7.28;4.35;;;;;;;5.32;47.55;98256.19;5033190;28;20174;-58
2024/01/12 10:29:17;;;;;;;7.57;4.38;;;;;;;5.44;47.90;98276.09;5013134;28;20628;-58
2024/01/12 10:31:44;;;;;;;6.10;4.40;;;;;;;5.34;47.23;98247.50;5013026;28;20183;-58
2024/01/12 10:34:14;;;;;;;6.40;4.13;;;;;;;5.58;46.97;98279.63;4993154;28;20250;-58
2024/01/12 10:36:40;;;;;;;6.00;4.43;;;;;;;5.13;45.40;98197.28;4993335;28;20278;-57
2024/01/12 10:39:08;;;;;;;7.95;5.25;;;;;;;5.80;46.85;98299.91;4993591;28;20675;-57
2024/01/12 10:41:34;;;;;;;5.82;4.85;;;;;;;5.24;47.18;98205.25;4993306;28;20245;-57
2024/01/12 10:44:04;;;;;;;6.05;3.90;;;;;;;5.83;46.74;98300.56;4993149;28;20695;-57
2024/01/12 10:46:40;;;;;;;7.15;4.47;;;;;;;5.83;46.26;98302.34;5031846;28;20320;-57
2024/01/12 10:49:12;;;;;;;6.70;4.63;;;;;;;5.82;47.21;98300.69;5032597;28;20190;-57
2024/01/12 10:51:41;;;;;;;5.45;4.38;;;;;;;5.55;46.70;98241.25;5052394;28;20671;-57
2024/01/12 10:54:18;;;;;;;7.93;4.53;;;;;;;6.07;46.21;98303.63;5052273;28;20221;-57
2024/01/12 10:56:45;;;;;;;5.50;4.63;;;;;;;5.83;46.22;98246.66;5052349;28;20166;-57
2024/01/12 10:59:11;;;;;;;6.82;3.72;;;;;;;6.12;45.81;98273.41;5052548;28;20643;-57
2024/01/12 11:01:38;;;;;;;6.18;4.55;;;;;;;5.78;44.47;98210.09;5052206;28;20279;-57
2024/01/12 11:04:04;;;;;;;4.85;4.35;;;;;;;6.33;44.32;98288.50;5054191;28;20189;-57
2024/01/12 11:06:31;;;;;;;8.80;4.95;;;;;;;6.13;44.71;98250.19;5094810;28;20561;-57
2024/01/12 11:08:57;;;;;;;6.88;4.47;;;;;;;6.03;43.67;98222.50;5094375;28;20549;-57
2024/01/12 11:11:31;;;;;;;9.15;4.93;;;;;;;6.52;43.94;98299.44;5094617;28;20193;-57
2024/01/12 11:13:56;;;;;;;10.85;5.72;;;;;;;6.49;42.50;98285.94;5094618;28;20249;-57
2024/01/12 11:16:22;;;;;;;8.38;5.03;;;;;;;6.01;43.98;98214.06;5094582;28;20181;-57
2024/01/12 11:18:47;;;;;;;7.78;5.38;;;;;;;6.24;43.03;98255.56;5094660;28;20190;-57
2024/01/12 11:21:23;;;;;;;8.30;5.30;;;;;;;6.56;42.45;98306.09;5093843;28;20267;-57
2024/01/12 11:23:48;;;;;;;7.20;4.03;;;;;;;6.61;42.51;98300.69;5094138;28;20195;-57
2024/01/12 11:26:14;;;;;;;7.95;4.72;;;;;;;6.71;42.30;98304.41;5051722;28;20665;-57
2024/01/12 11:28:39;;;;;;;7.57;5.10;;;;;;;6.43;43.34;98251.13;5051796;28;20186;-57
2024/01/12 11:31:05;;;;;;;9.55;6.25;;;;;;;6.48;41.85;98251.69;5051786;28;20634;-57